Hlavní strana
METAR-TAF:

METAR-TAF

Letiště :

Starkville, Mississippi, Spojené státy americké

zeměpisná šířka: 33-25-59N, zeměpisná délka: 088-50-55W, výška: 101 m

Aktuální stav počasí

Zpráva byla vytvořena před 18 minutami, v 01:55 UTC
Bezvětří
Teplota 14°C
Vlhkost vzduchu 94%
Tlak 1022 hPa
Viditelnost: 16.1 km
Polojasno ve výšce 2500 ft
Oblačno až skoro zataženo ve výšce 8500 ft

METAR: KSTF 190155Z AUTO 00000KT 10SM SCT025 BKN085 14/13 A3018 RMK AO2

Čas: 20:13 (02:13 UTC)


TAF: chybějící

Stav a předpovědi počasí z více než 4 000 letišť (zprávy METAR a TAF).

Červené a žluté tečky na mapě představují dostupné meteorologické stanice.

Když kurzor umístíte na tečku, zobrazí se název stanice.

Pak kliknutím zobrazíte stav a předpověď počasí.

Chcete-li změnit mapu, kliknutím na zelené tlačítko se znaménkem +mapu přiblížíte, kliknutím na zelené tlačítko se znaménkem – mapu oddálíte a kliknutím na zelené šipky přejdete na sousední mapy.


METAR-TAF: